createdAt,value
2022-09-18T00:01:24.579Z,8.45
2022-09-18T00:03:53.555Z,9.00
2022-09-18T00:06:26.247Z,8.77
2022-09-18T00:08:54.830Z,9.73
2022-09-18T00:11:23.926Z,8.80
2022-09-18T00:13:51.340Z,9.60
2022-09-18T00:16:20.826Z,8.40
2022-09-18T00:18:48.108Z,8.77
2022-09-18T00:21:17.395Z,9.13
2022-09-18T00:23:45.611Z,9.25
2022-09-18T00:26:14.343Z,8.77
2022-09-18T00:28:41.338Z,9.15
2022-09-18T00:31:13.978Z,8.48
2022-09-18T00:33:41.093Z,8.15
2022-09-18T00:36:11.846Z,8.85
2022-09-18T00:38:39.731Z,10.07
2022-09-18T00:41:11.271Z,9.23
2022-09-18T00:43:38.717Z,9.05
2022-09-18T00:46:08.730Z,8.23
2022-09-18T00:48:54.538Z,8.75
2022-09-18T00:51:21.342Z,8.82
2022-09-18T00:53:58.439Z,8.57
2022-09-18T00:56:26.254Z,8.80
2022-09-18T00:58:53.178Z,8.45
2022-09-18T01:01:20.055Z,8.25
2022-09-18T01:03:46.774Z,8.52
2022-09-18T01:06:25.046Z,8.73
2022-09-18T01:08:54.493Z,9.57
2022-09-18T01:11:34.031Z,9.48
2022-09-18T01:14:38.456Z,9.18
2022-09-18T01:17:23.817Z,8.77
2022-09-18T01:20:05.455Z,10.13
2022-09-18T01:22:32.210Z,8.90
2022-09-18T01:25:23.428Z,9.13
2022-09-18T01:30:41.604Z,9.60
2022-09-18T01:33:17.997Z,9.68
2022-09-18T01:35:55.686Z,9.73
2022-09-18T01:38:29.506Z,8.63
2022-09-18T01:41:09.772Z,9.18
2022-09-18T01:43:39.067Z,9.57
2022-09-18T01:46:11.680Z,9.93
2022-09-18T01:49:10.046Z,8.57
2022-09-18T01:51:43.201Z,9.30
2022-09-18T01:54:24.307Z,9.60
2022-09-18T01:57:01.404Z,9.02
2022-09-18T01:59:36.206Z,9.25
2022-09-18T02:02:06.977Z,8.55
2022-09-18T02:07:14.398Z,9.02
2022-09-18T02:09:42.994Z,9.45
2022-09-18T02:12:14.468Z,10.15
2022-09-18T02:14:43.979Z,9.60
2022-09-18T02:17:25.292Z,9.38
2022-09-18T02:19:59.651Z,9.82
2022-09-18T02:22:30.310Z,9.38
2022-09-18T02:25:01.798Z,8.77
2022-09-18T02:27:30.169Z,10.05
2022-09-18T02:29:58.299Z,9.63
2022-09-18T02:32:24.963Z,9.38
2022-09-18T02:34:51.938Z,9.30
2022-09-18T02:37:18.641Z,10.52
2022-09-18T02:40:04.866Z,8.48
2022-09-18T02:43:13.266Z,8.65
2022-09-18T02:45:45.283Z,9.30
2022-09-18T02:48:30.912Z,9.95
2022-09-18T02:51:22.941Z,10.48
2022-09-18T02:53:58.351Z,10.25
2022-09-18T02:56:46.994Z,9.48
2022-09-18T02:59:33.484Z,10.57
2022-09-18T03:02:00.753Z,10.98
2022-09-18T03:04:28.286Z,12.55
2022-09-18T03:06:55.453Z,11.95
2022-09-18T03:09:22.518Z,12.93
2022-09-18T03:11:50.238Z,12.15
2022-09-18T03:14:17.038Z,12.80
2022-09-18T03:16:43.754Z,13.13
2022-09-18T03:19:11.752Z,12.68
2022-09-18T03:21:38.846Z,12.68
2022-09-18T03:24:05.888Z,12.23
2022-09-18T03:26:32.733Z,13.10
2022-09-18T03:28:59.449Z,12.43
2022-09-18T03:31:26.204Z,12.88
2022-09-18T03:33:52.966Z,12.95
2022-09-18T03:36:19.614Z,13.18
2022-09-18T03:38:46.304Z,12.40
2022-09-18T03:41:13.149Z,13.90
2022-09-18T03:43:39.823Z,14.18
2022-09-18T03:46:06.555Z,13.52
2022-09-18T03:48:33.267Z,12.52
2022-09-18T03:51:00.242Z,12.82
2022-09-18T03:53:26.977Z,12.38
2022-09-18T03:55:53.641Z,12.85
2022-09-18T03:58:20.395Z,11.45
2022-09-18T04:00:47.357Z,12.43
2022-09-18T04:03:14.154Z,12.75
2022-09-18T04:05:40.965Z,13.63
2022-09-18T04:08:08.137Z,12.75
2022-09-18T04:10:34.972Z,12.35
2022-09-18T04:13:01.816Z,13.38
2022-09-18T04:15:28.506Z,12.05
2022-09-18T04:17:55.508Z,12.27
2022-09-18T04:20:22.456Z,12.55
2022-09-18T04:22:49.250Z,12.27
2022-09-18T04:25:16.301Z,12.05
2022-09-18T04:27:43.019Z,13.18
2022-09-18T04:30:12.763Z,13.73
2022-09-18T04:32:39.504Z,14.25
2022-09-18T04:35:06.770Z,12.93
2022-09-18T04:37:33.427Z,13.95
2022-09-18T04:40:00.236Z,13.40
2022-09-18T04:42:26.955Z,14.27
2022-09-18T04:44:53.639Z,16.13
2022-09-18T04:47:20.412Z,15.27
2022-09-18T04:49:47.190Z,15.18
2022-09-18T04:52:13.995Z,13.88
2022-09-18T04:54:40.712Z,13.00
2022-09-18T04:57:07.471Z,12.65
2022-09-18T04:59:34.177Z,12.43
2022-09-18T05:02:00.988Z,10.88
2022-09-18T05:04:27.786Z,11.35
2022-09-18T05:06:54.515Z,11.50
2022-09-18T05:09:21.274Z,11.13
2022-09-18T05:11:48.325Z,10.15
2022-09-18T05:14:15.348Z,10.07
2022-09-18T05:16:42.074Z,9.13
2022-09-18T05:19:09.201Z,9.45
2022-09-18T05:21:35.935Z,9.90
2022-09-18T05:24:02.945Z,9.43
2022-09-18T05:26:31.123Z,10.18
2022-09-18T05:28:57.828Z,8.93
2022-09-18T05:31:24.649Z,9.43
2022-09-18T05:33:51.495Z,9.27
2022-09-18T05:36:18.264Z,9.70
2022-09-18T05:38:45.723Z,10.40
2022-09-18T05:41:12.472Z,9.20
2022-09-18T05:43:39.326Z,10.70
2022-09-18T05:46:06.534Z,9.45
2022-09-18T05:48:33.335Z,9.30
2022-09-18T05:51:00.061Z,8.57
2022-09-18T05:53:26.791Z,10.15
2022-09-18T05:55:53.591Z,9.60
2022-09-18T05:58:21.012Z,9.90
2022-09-18T06:00:48.707Z,11.73
2022-09-18T06:03:16.799Z,12.07
2022-09-18T06:05:50.794Z,11.70
2022-09-18T06:08:17.978Z,11.10
2022-09-18T06:10:44.716Z,12.73
2022-09-18T06:13:16.729Z,12.90
2022-09-18T06:15:49.725Z,13.10
2022-09-18T06:18:16.442Z,12.98
2022-09-18T06:20:45.010Z,14.27
2022-09-18T06:23:11.764Z,14.45
2022-09-18T06:25:38.588Z,14.25
2022-09-18T06:28:06.586Z,13.05
2022-09-18T06:30:36.317Z,13.88
2022-09-18T06:33:05.814Z,16.23
2022-09-18T06:35:34.355Z,24.52
2022-09-18T06:38:05.870Z,13.88
2022-09-18T06:40:33.362Z,14.65
2022-09-18T06:43:01.831Z,13.70
2022-09-18T06:45:29.745Z,13.93
2022-09-18T06:48:01.748Z,13.18
2022-09-18T06:50:28.499Z,13.02
2022-09-18T06:52:55.232Z,13.82
2022-09-18T06:55:21.931Z,13.02
2022-09-18T06:57:59.616Z,12.75
2022-09-18T07:00:27.577Z,13.35
2022-09-18T07:02:56.257Z,12.80
2022-09-18T07:05:23.482Z,12.80
2022-09-18T07:07:50.419Z,13.63
2022-09-18T07:10:17.108Z,12.77
2022-09-18T07:12:48.354Z,13.00
2022-09-18T07:15:16.644Z,11.68
2022-09-18T07:17:43.738Z,12.35
2022-09-18T07:20:12.141Z,12.95
2022-09-18T07:22:43.722Z,12.65
2022-09-18T07:25:13.464Z,12.13
2022-09-18T07:27:40.251Z,12.18
2022-09-18T07:30:07.444Z,12.85
2022-09-18T07:32:35.776Z,13.02
2022-09-18T07:35:02.766Z,14.43
2022-09-18T07:37:29.594Z,13.70
2022-09-18T07:39:56.541Z,13.73
2022-09-18T07:42:23.338Z,13.73
2022-09-18T07:44:50.097Z,13.00
2022-09-18T07:47:16.847Z,11.43
2022-09-18T07:49:43.570Z,11.45
2022-09-18T07:52:10.673Z,10.02
2022-09-18T07:54:37.447Z,11.00
2022-09-18T07:57:04.568Z,9.25
2022-09-18T07:59:31.970Z,8.40
2022-09-18T08:01:58.830Z,8.70
2022-09-18T08:04:25.982Z,7.28
2022-09-18T08:06:53.768Z,7.65
2022-09-18T08:09:20.999Z,6.53
2022-09-18T08:11:51.003Z,6.60
2022-09-18T08:14:18.031Z,6.40
2022-09-18T08:16:44.831Z,5.53
2022-09-18T08:19:12.784Z,5.50
2022-09-18T08:21:39.597Z,5.88
2022-09-18T08:24:06.612Z,5.50
2022-09-18T08:26:36.177Z,5.90
2022-09-18T08:29:02.912Z,5.50
2022-09-18T08:31:29.709Z,5.85
2022-09-18T08:33:57.304Z,5.63
2022-09-18T08:36:26.808Z,5.65
2022-09-18T08:38:55.923Z,5.47
2022-09-18T08:41:27.615Z,5.57
2022-09-18T08:44:10.373Z,5.78
2022-09-18T08:46:51.531Z,9.45
2022-09-18T08:49:24.920Z,6.50
2022-09-18T08:52:13.252Z,6.63
2022-09-18T08:55:03.042Z,6.90
2022-09-18T08:57:37.653Z,7.10
2022-09-18T09:00:23.905Z,8.63
2022-09-18T09:03:00.839Z,7.60
2022-09-18T09:05:37.327Z,7.57
2022-09-18T09:08:25.903Z,8.57
2022-09-18T09:11:02.334Z,8.88
2022-09-18T09:13:44.288Z,8.85
2022-09-18T09:16:17.588Z,9.50
2022-09-18T09:19:01.726Z,10.15
2022-09-18T09:22:03.848Z,10.63
2022-09-18T09:24:35.720Z,10.15
2022-09-18T09:27:39.551Z,10.73
2022-09-18T09:30:17.120Z,10.50
2022-09-18T09:33:27.787Z,10.07
2022-09-18T09:36:02.670Z,9.27
2022-09-18T09:38:34.719Z,9.27
2022-09-18T09:41:13.635Z,8.57
2022-09-18T09:43:49.542Z,7.63
2022-09-18T09:46:42.998Z,7.57
2022-09-18T09:49:33.892Z,7.15
2022-09-18T09:52:23.786Z,7.45
2022-09-18T09:54:59.520Z,7.43
2022-09-18T09:57:47.521Z,5.80
2022-09-18T10:00:19.834Z,5.72
2022-09-18T10:02:58.534Z,5.65
2022-09-18T10:05:50.329Z,5.90
2022-09-18T10:08:31.529Z,5.63
2022-09-18T10:11:00.135Z,6.80
2022-09-18T10:13:39.074Z,7.22
2022-09-18T10:16:36.352Z,6.93
2022-09-18T10:19:04.708Z,6.22
2022-09-18T10:21:37.267Z,6.30
2022-09-18T10:24:16.080Z,6.88
2022-09-18T10:26:51.435Z,6.93
2022-09-18T10:29:19.267Z,7.75
2022-09-18T10:31:55.737Z,8.10
2022-09-18T10:34:48.798Z,8.18
2022-09-18T10:37:35.399Z,8.82
2022-09-18T10:40:03.053Z,8.77
2022-09-18T10:42:32.390Z,10.10
2022-09-18T10:45:20.436Z,9.52
2022-09-18T10:47:47.226Z,8.35
2022-09-18T10:50:14.416Z,7.50
2022-09-18T10:52:43.158Z,6.18
2022-09-18T10:55:25.500Z,5.80
2022-09-18T10:57:58.355Z,6.03
2022-09-18T11:00:25.594Z,5.43
2022-09-18T11:02:59.506Z,6.38
2022-09-18T11:05:33.050Z,5.80
2022-09-18T11:08:04.024Z,5.40
2022-09-18T11:13:02.369Z,4.78
2022-09-18T11:15:31.995Z,4.63
2022-09-18T11:18:05.022Z,4.38
2022-09-18T11:20:35.005Z,4.75
2022-09-18T11:23:26.470Z,4.50
2022-09-18T11:26:17.748Z,4.43
2022-09-18T11:29:01.100Z,4.28
2022-09-18T11:31:48.071Z,4.40
2022-09-18T11:34:24.283Z,4.95
2022-09-18T11:36:54.720Z,5.13
2022-09-18T11:39:26.237Z,5.47
2022-09-18T11:41:54.370Z,5.07
2022-09-18T11:44:31.594Z,4.82
2022-09-18T11:47:25.562Z,4.65
2022-09-18T11:50:04.155Z,4.80
2022-09-18T11:53:00.533Z,4.72
2022-09-18T11:55:49.164Z,5.47
2022-09-18T11:58:36.614Z,4.88
2022-09-18T12:01:20.891Z,5.05
2022-09-18T12:04:16.244Z,5.20
2022-09-18T12:06:58.434Z,5.32
2022-09-18T12:09:44.840Z,5.30
2022-09-18T12:12:48.084Z,5.50
2022-09-18T12:15:27.516Z,4.60
2022-09-18T12:18:02.168Z,5.07
2022-09-18T12:20:38.389Z,5.10
2022-09-18T12:23:15.197Z,5.15
2022-09-18T12:26:10.884Z,5.10
2022-09-18T12:29:20.673Z,5.53
2022-09-18T12:32:24.049Z,6.00
2022-09-18T12:35:55.768Z,5.65
2022-09-18T12:38:48.049Z,5.47
2022-09-18T12:41:46.826Z,5.85
2022-09-18T12:44:33.587Z,6.25
2022-09-18T12:47:29.181Z,5.32
2022-09-18T12:50:21.807Z,5.20
2022-09-18T12:53:15.031Z,4.90
2022-09-18T12:55:55.475Z,4.78
2022-09-18T12:59:11.079Z,4.97
2022-09-18T13:02:02.249Z,4.72
2022-09-18T13:04:54.649Z,4.93
2022-09-18T13:07:30.613Z,4.55
2022-09-18T13:10:17.978Z,4.57
2022-09-18T13:13:18.906Z,4.78
2022-09-18T13:15:54.753Z,5.80
2022-09-18T13:18:53.006Z,5.47
2022-09-18T13:24:38.485Z,4.85
2022-09-18T13:27:20.138Z,5.30
2022-09-18T13:30:03.147Z,5.60
2022-09-18T13:32:40.821Z,4.85
2022-09-18T13:35:42.950Z,6.07
2022-09-18T13:38:19.989Z,5.20
2022-09-18T13:41:08.652Z,4.88
2022-09-18T13:43:47.911Z,5.10
2022-09-18T13:46:36.255Z,5.18
2022-09-18T13:49:29.554Z,4.65
2022-09-18T13:52:33.871Z,4.95
2022-09-18T13:57:49.113Z,5.25
2022-09-18T14:00:34.178Z,4.82
2022-09-18T14:03:27.693Z,4.85
2022-09-18T14:05:58.980Z,4.40
2022-09-18T14:08:39.950Z,4.68
2022-09-18T14:11:15.915Z,4.90
2022-09-18T14:13:59.922Z,4.78
2022-09-18T14:16:41.906Z,4.60
2022-09-18T14:19:38.088Z,4.90
2022-09-18T14:22:06.631Z,4.93
2022-09-18T14:24:50.329Z,5.22
2022-09-18T14:27:54.222Z,4.88
2022-09-18T14:30:29.863Z,5.70
2022-09-18T14:33:21.458Z,4.85
2022-09-18T14:36:05.606Z,5.95
2022-09-18T14:38:45.652Z,5.00
2022-09-18T14:41:23.523Z,5.05
2022-09-18T14:44:04.987Z,4.90
2022-09-18T14:46:52.466Z,5.40
2022-09-18T14:49:48.732Z,5.20
2022-09-18T14:52:41.874Z,4.97
2022-09-18T14:55:17.039Z,5.47
2022-09-18T14:58:03.087Z,5.22
2022-09-18T15:00:35.509Z,5.60
2022-09-18T15:03:17.036Z,5.10
2022-09-18T15:05:52.086Z,4.97
2022-09-18T15:08:26.819Z,4.75
2022-09-18T15:11:06.567Z,4.95
2022-09-18T15:13:39.033Z,5.20
2022-09-18T15:16:09.928Z,5.20
2022-09-18T15:21:33.361Z,5.45
2022-09-18T15:24:07.791Z,4.75
2022-09-18T15:26:52.266Z,5.30
2022-09-18T15:29:38.033Z,5.28
2022-09-18T15:32:08.778Z,5.30
2022-09-18T15:37:32.891Z,5.72
2022-09-18T15:40:09.571Z,5.63
2022-09-18T15:42:48.744Z,6.60
2022-09-18T15:45:21.156Z,7.20
2022-09-18T15:47:59.591Z,6.60
2022-09-18T15:50:41.110Z,5.85
2022-09-18T15:53:31.469Z,5.30
2022-09-18T15:56:10.025Z,6.28
2022-09-18T15:58:43.205Z,6.18
2022-09-18T16:01:24.677Z,6.13
2022-09-18T16:04:17.446Z,6.88
2022-09-18T16:07:17.326Z,5.65
2022-09-18T16:09:52.415Z,6.15
2022-09-18T16:12:42.906Z,5.60
2022-09-18T16:15:28.156Z,6.22
2022-09-18T16:18:48.656Z,5.47
2022-09-18T16:21:35.512Z,5.53
2022-09-18T16:24:08.483Z,5.32
2022-09-18T16:29:27.988Z,5.63
2022-09-18T16:31:58.784Z,5.40
2022-09-18T16:34:34.285Z,5.50
2022-09-18T16:37:17.660Z,5.40
2022-09-18T16:39:53.121Z,5.65
2022-09-18T16:42:23.791Z,4.90
2022-09-18T16:44:56.083Z,5.50
2022-09-18T16:47:27.021Z,5.50
2022-09-18T16:52:31.052Z,4.93
2022-09-18T16:55:17.763Z,4.85
2022-09-18T16:57:47.728Z,5.18
2022-09-18T17:00:34.687Z,4.70
2022-09-18T17:03:06.572Z,4.95
2022-09-18T17:05:45.631Z,4.80
2022-09-18T17:08:12.919Z,4.80
2022-09-18T17:10:44.908Z,4.93
2022-09-18T17:13:17.039Z,5.15
2022-09-18T17:15:49.515Z,4.95
2022-09-18T17:18:20.655Z,4.90
2022-09-18T17:20:59.279Z,4.97
2022-09-18T17:23:52.502Z,5.07
2022-09-18T17:26:29.780Z,5.07
2022-09-18T17:29:00.443Z,5.32
2022-09-18T17:31:34.518Z,5.45
2022-09-18T17:34:06.476Z,4.90
2022-09-18T17:36:40.925Z,5.18
2022-09-18T17:39:29.444Z,4.90
2022-09-18T17:41:59.748Z,5.20
2022-09-18T17:44:42.783Z,5.20
2022-09-18T17:47:11.639Z,5.00
2022-09-18T17:49:40.295Z,8.05
2022-09-18T17:52:18.042Z,5.72
2022-09-18T17:54:49.368Z,5.93
2022-09-18T17:57:47.508Z,5.68
2022-09-18T18:00:18.063Z,5.50
2022-09-18T18:02:52.813Z,5.30
2022-09-18T18:05:24.935Z,5.15
2022-09-18T18:07:54.756Z,5.20
2022-09-18T18:10:22.134Z,6.40
2022-09-18T18:13:04.386Z,5.28
2022-09-18T18:15:47.260Z,5.55
2022-09-18T18:18:20.432Z,5.35
2022-09-18T18:20:53.990Z,5.53
2022-09-18T18:23:23.418Z,5.80
2022-09-18T18:25:51.631Z,6.93
2022-09-18T18:28:23.702Z,5.50
2022-09-18T18:33:48.698Z,5.90
2022-09-18T18:36:35.974Z,5.78
2022-09-18T18:39:14.337Z,6.15
2022-09-18T18:41:48.471Z,6.20
2022-09-18T18:47:08.057Z,6.00
2022-09-18T18:49:36.408Z,5.97
2022-09-18T18:52:07.574Z,6.28
2022-09-18T18:54:36.637Z,6.30
2022-09-18T18:57:07.060Z,6.00
2022-09-18T18:59:48.968Z,6.75
2022-09-18T19:02:29.528Z,5.88
2022-09-18T19:05:13.881Z,6.60
2022-09-18T19:07:41.034Z,6.45
2022-09-18T19:13:00.862Z,7.82
2022-09-18T19:15:34.645Z,7.13
2022-09-18T19:18:08.898Z,7.03
2022-09-18T19:20:39.766Z,6.70
2022-09-18T19:26:01.633Z,6.72
2022-09-18T19:28:33.431Z,6.78
2022-09-18T19:31:19.847Z,6.50
2022-09-18T19:33:55.516Z,8.68
2022-09-18T19:36:28.858Z,7.78
2022-09-18T19:39:05.021Z,7.50
2022-09-18T19:42:06.239Z,7.28
2022-09-18T19:44:48.126Z,7.22
2022-09-18T19:47:19.917Z,19.60
2022-09-18T19:49:50.128Z,7.40
2022-09-18T19:52:22.295Z,6.30
2022-09-18T19:54:57.633Z,6.57
2022-09-18T19:57:31.278Z,6.90
2022-09-18T20:00:04.046Z,7.20
2022-09-18T20:02:31.223Z,7.20
2022-09-18T20:04:59.112Z,7.43
2022-09-18T20:07:26.663Z,6.50
2022-09-18T20:09:54.204Z,7.13
2022-09-18T20:12:25.603Z,6.15
2022-09-18T20:14:57.017Z,6.53
2022-09-18T20:17:40.082Z,6.47
2022-09-18T20:22:59.769Z,6.93
2022-09-18T20:25:33.423Z,7.53
2022-09-18T20:28:15.851Z,6.70
2022-09-18T20:30:45.628Z,7.00
2022-09-18T20:33:21.584Z,6.68
2022-09-18T20:35:59.648Z,6.88
2022-09-18T20:38:49.535Z,7.10
2022-09-18T20:41:54.755Z,6.97
2022-09-18T20:44:31.951Z,6.93
2022-09-18T20:47:08.657Z,7.40
2022-09-18T20:49:57.180Z,7.75
2022-09-18T20:52:34.454Z,7.38
2022-09-18T20:55:13.110Z,7.95
2022-09-18T20:57:51.535Z,7.40
2022-09-18T21:00:34.291Z,7.43
2022-09-18T21:03:12.232Z,8.45
2022-09-18T21:06:23.277Z,7.70
2022-09-18T21:22:43.709Z,8.00
2022-09-18T21:25:21.336Z,7.40
2022-09-18T21:27:48.462Z,7.80
2022-09-18T21:30:16.343Z,9.52
2022-09-18T21:32:43.189Z,8.68
2022-09-18T21:35:10.213Z,8.05
2022-09-18T21:37:37.014Z,7.80
2022-09-18T21:40:23.577Z,7.68
2022-09-18T21:43:22.503Z,7.53
2022-09-18T21:45:50.053Z,8.02
2022-09-18T21:48:18.070Z,7.35
2022-09-18T21:50:45.243Z,7.50
2022-09-18T21:53:12.083Z,7.20
2022-09-18T21:55:39.302Z,7.80
2022-09-18T21:58:07.053Z,7.65
2022-09-18T22:00:34.108Z,7.88
2022-09-18T22:03:01.067Z,7.80
2022-09-18T22:05:29.487Z,7.43
2022-09-18T22:07:57.697Z,8.43
2022-09-18T22:10:25.226Z,8.77
2022-09-18T22:12:53.071Z,7.68
2022-09-18T22:15:19.962Z,8.48
2022-09-18T22:17:49.011Z,7.75
2022-09-18T22:20:17.734Z,7.75
2022-09-18T22:22:44.718Z,7.63
2022-09-18T22:25:12.733Z,8.02
2022-09-18T22:27:41.708Z,7.57
2022-09-18T22:30:10.577Z,7.30
2022-09-18T22:32:40.594Z,7.03
2022-09-18T22:35:14.977Z,7.15
2022-09-18T22:37:58.678Z,6.95
2022-09-18T22:40:27.579Z,6.68
2022-09-18T22:42:56.597Z,6.75
2022-09-18T22:45:28.369Z,6.70
2022-09-18T22:48:16.400Z,6.90
2022-09-18T22:50:45.674Z,6.50
2022-09-18T22:53:14.854Z,6.80
2022-09-18T22:55:49.345Z,6.47
2022-09-18T22:58:17.004Z,8.70
2022-09-18T23:00:46.327Z,7.00
2022-09-18T23:03:17.007Z,6.40
2022-09-18T23:05:46.802Z,6.95
2022-09-18T23:08:15.381Z,7.30
2022-09-18T23:10:48.898Z,6.65
2022-09-18T23:13:19.039Z,6.60
2022-09-18T23:16:06.909Z,6.97
2022-09-18T23:18:37.779Z,7.10
2022-09-18T23:21:13.099Z,7.20
2022-09-18T23:23:44.395Z,7.20
2022-09-18T23:26:23.563Z,7.55
2022-09-18T23:28:57.014Z,7.15
2022-09-18T23:31:40.036Z,7.15
2022-09-18T23:34:12.161Z,7.75
2022-09-18T23:36:43.761Z,7.00
2022-09-18T23:39:29.949Z,7.63
2022-09-18T23:41:59.351Z,6.72
2022-09-18T23:44:28.912Z,6.85
2022-09-18T23:47:06.179Z,6.57
2022-09-18T23:49:35.051Z,6.10
2022-09-18T23:52:07.454Z,7.03
2022-09-18T23:54:37.599Z,6.88
2022-09-18T23:57:05.134Z,7.35
2022-09-18T23:59:37.208Z,7.18
